createdAt,value
2023-04-06T00:04:27.689Z,67.80
2023-04-06T00:09:32.932Z,60.33
2023-04-06T00:14:36.385Z,66.88
2023-04-06T00:19:39.759Z,57.83
2023-04-06T00:24:44.548Z,62.55
2023-04-06T00:29:47.899Z,76.82
2023-04-06T00:34:51.276Z,87.60
2023-04-06T00:39:56.129Z,74.68
2023-04-06T00:45:00.956Z,64.55
2023-04-06T00:50:04.822Z,60.58
2023-04-06T00:55:10.524Z,73.30
2023-04-06T01:00:15.564Z,68.00
2023-04-06T01:05:19.113Z,73.65
2023-04-06T01:10:27.634Z,82.70
2023-04-06T01:15:31.578Z,73.85
2023-04-06T01:20:35.211Z,70.82
2023-04-06T01:25:39.960Z,75.00
2023-04-06T01:30:43.479Z,68.10
2023-04-06T01:35:46.917Z,64.88
2023-04-06T01:40:51.719Z,58.85
2023-04-06T01:45:55.176Z,63.88
2023-04-06T01:50:58.596Z,64.97
2023-04-06T01:56:03.351Z,64.78
2023-04-06T02:01:07.104Z,61.00
2023-04-06T02:06:10.719Z,59.35
2023-04-06T02:11:15.968Z,67.75
2023-04-06T02:16:19.427Z,64.63
2023-04-06T02:21:22.823Z,60.42
2023-04-06T02:26:27.542Z,61.63
2023-04-06T02:31:30.987Z,64.70
2023-04-06T02:36:34.408Z,54.63
2023-04-06T02:41:39.486Z,64.60
2023-04-06T02:46:42.893Z,64.68
2023-04-06T02:51:46.456Z,69.45
2023-04-06T02:56:51.562Z,65.97
2023-04-06T03:01:55.428Z,65.05
2023-04-06T03:07:01.316Z,77.28
2023-04-06T03:12:09.198Z,69.95
2023-04-06T03:17:13.495Z,73.30
2023-04-06T03:22:16.914Z,66.35
2023-04-06T03:27:21.917Z,64.95
2023-04-06T03:32:25.722Z,63.95
2023-04-06T03:37:29.088Z,60.60
2023-04-06T03:42:34.464Z,67.85
2023-04-06T03:47:37.911Z,66.30
2023-04-06T03:52:41.410Z,64.45
2023-04-06T03:57:46.497Z,64.13
2023-04-06T04:02:50.031Z,59.67
2023-04-06T04:07:53.551Z,61.78
2023-04-06T04:12:58.286Z,53.28
2023-04-06T04:18:01.962Z,61.03
2023-04-06T04:23:05.357Z,57.10
2023-04-06T04:28:10.155Z,62.65
2023-04-06T04:33:13.509Z,68.80
2023-04-06T04:38:17.143Z,64.28
2023-04-06T04:43:21.945Z,63.58
2023-04-06T04:48:25.583Z,65.55
2023-04-06T04:53:29.269Z,66.30
2023-04-06T04:58:34.357Z,59.83
2023-04-06T05:03:40.727Z,56.03
2023-04-06T05:08:44.730Z,57.85
2023-04-06T05:13:49.865Z,54.55
2023-04-06T05:18:53.961Z,53.58
2023-04-06T05:23:57.685Z,57.33
2023-04-06T05:29:02.834Z,56.47
2023-04-06T05:34:06.823Z,51.40
2023-04-06T05:39:10.658Z,53.38
2023-04-06T05:44:15.757Z,55.65
2023-04-06T05:49:19.289Z,55.00
2023-04-06T05:54:22.656Z,50.33
2023-04-06T05:59:27.491Z,60.80
2023-04-06T06:04:30.939Z,73.07
2023-04-06T06:09:34.363Z,69.97
2023-04-06T06:14:39.603Z,67.22
2023-04-06T06:19:43.006Z,66.85
2023-04-06T06:24:46.418Z,60.85
2023-04-06T06:29:51.222Z,60.33
2023-04-06T06:34:54.744Z,56.47
2023-04-06T06:39:58.161Z,53.35
2023-04-06T06:45:03.218Z,55.20
2023-04-06T06:50:08.107Z,49.38
2023-04-06T06:55:12.707Z,52.58
2023-04-06T07:00:18.069Z,51.97
2023-04-06T07:05:28.158Z,54.95
2023-04-06T07:10:32.546Z,51.05
2023-04-06T07:15:38.938Z,51.80
2023-04-06T07:20:42.476Z,54.58
2023-04-06T07:25:46.623Z,55.13
2023-04-06T07:30:51.521Z,53.95
2023-04-06T07:35:55.042Z,48.75
2023-04-06T07:40:58.912Z,51.88
2023-04-06T07:46:03.896Z,58.90
2023-04-06T07:51:07.841Z,50.63
2023-04-06T07:56:11.320Z,41.70
2023-04-06T08:01:16.505Z,44.83
2023-04-06T08:06:19.934Z,32.95
2023-04-06T08:11:23.365Z,26.15
2023-04-06T08:16:28.731Z,26.13
2023-04-06T08:21:32.183Z,26.23
2023-04-06T08:26:38.015Z,26.25
2023-04-06T08:31:42.959Z,25.10
2023-04-06T08:36:47.825Z,27.52
2023-04-06T08:41:52.958Z,18.80
2023-04-06T08:46:57.891Z,19.17
2023-04-06T08:52:02.559Z,22.30
2023-04-06T08:57:07.244Z,17.88
2023-04-06T09:02:19.231Z,21.15
2023-04-06T09:07:23.455Z,21.83
2023-04-06T09:12:28.623Z,20.80
2023-04-06T09:17:35.156Z,19.67
2023-04-06T09:22:39.424Z,20.55
2023-04-06T09:27:45.358Z,17.80
2023-04-06T09:32:52.098Z,18.60
2023-04-06T09:37:56.340Z,16.08
2023-04-06T09:43:00.481Z,17.38
2023-04-06T09:48:06.298Z,15.88
2023-04-06T09:53:10.136Z,18.85
2023-04-06T09:58:20.220Z,17.15
2023-04-06T10:03:34.814Z,13.23
2023-04-06T10:08:42.462Z,14.63
2023-04-06T10:13:48.719Z,14.93
2023-04-06T10:19:00.574Z,12.60
2023-04-06T10:24:10.897Z,15.18
2023-04-06T10:29:14.293Z,14.00
2023-04-06T10:34:19.058Z,11.52
2023-04-06T10:39:28.014Z,13.18
2023-04-06T10:44:31.461Z,15.25
2023-04-06T10:49:39.199Z,11.55
2023-04-06T10:54:46.135Z,10.88
2023-04-06T10:59:50.650Z,13.80
2023-04-06T11:04:59.183Z,15.32
2023-04-06T11:10:13.959Z,9.55
2023-04-06T11:15:20.324Z,11.65
2023-04-06T11:20:25.570Z,11.95
2023-04-06T11:25:30.970Z,11.80
2023-04-06T11:30:34.864Z,12.02
2023-04-06T11:35:39.782Z,16.33
2023-04-06T11:40:43.324Z,10.68
2023-04-06T11:45:47.103Z,10.18
2023-04-06T11:50:58.578Z,10.93
2023-04-06T11:56:02.553Z,13.77
2023-04-06T12:01:06.568Z,13.93
2023-04-06T12:06:11.494Z,12.05
2023-04-06T12:11:15.017Z,11.88
2023-04-06T12:16:20.264Z,11.48
2023-04-06T12:21:25.533Z,11.75
2023-04-06T12:26:31.585Z,12.63
2023-04-06T12:31:39.939Z,15.45
2023-04-06T12:36:45.367Z,12.23
2023-04-06T12:41:48.886Z,11.60
2023-04-06T12:46:52.345Z,12.07
2023-04-06T12:51:57.132Z,13.32
2023-04-06T12:57:01.954Z,12.38
2023-04-06T13:02:06.028Z,12.13
2023-04-06T13:07:10.836Z,12.65
2023-04-06T13:12:14.336Z,11.52
2023-04-06T13:17:17.771Z,12.60
2023-04-06T13:22:23.060Z,9.75
2023-04-06T13:27:28.299Z,9.27
2023-04-06T13:32:32.243Z,9.13
2023-04-06T13:37:37.677Z,10.25
2023-04-06T13:42:41.866Z,12.25
2023-04-06T13:47:45.531Z,9.07
2023-04-06T13:52:51.018Z,9.27
2023-04-06T13:57:54.451Z,10.57
2023-04-06T14:02:58.005Z,13.63
2023-04-06T14:08:04.158Z,10.35
2023-04-06T14:13:07.757Z,12.60
2023-04-06T14:18:11.543Z,13.50
2023-04-06T14:23:16.923Z,13.20
2023-04-06T14:28:23.194Z,11.60
2023-04-06T14:33:27.089Z,9.82
2023-04-06T14:38:33.267Z,10.90
2023-04-06T14:43:36.701Z,11.07
2023-04-06T14:48:40.046Z,9.88
2023-04-06T14:53:45.641Z,12.95
2023-04-06T14:58:49.424Z,9.65
2023-04-06T15:03:52.948Z,10.05
2023-04-06T15:08:58.039Z,9.63
2023-04-06T15:14:02.972Z,9.25
2023-04-06T15:19:06.555Z,9.18
2023-04-06T15:24:11.962Z,10.10
2023-04-06T15:29:16.548Z,10.32
2023-04-06T15:34:20.032Z,10.32
2023-04-06T15:39:29.261Z,8.65
2023-04-06T15:44:32.707Z,12.32
2023-04-06T15:49:36.256Z,11.93
2023-04-06T15:54:41.292Z,9.85
2023-04-06T15:59:45.073Z,11.73
2023-04-06T16:04:48.507Z,10.48
2023-04-06T16:09:53.331Z,10.43
2023-04-06T16:14:57.017Z,10.55
2023-04-06T16:20:00.459Z,14.20
2023-04-06T16:25:06.623Z,10.10
2023-04-06T16:30:11.308Z,10.45
2023-04-06T16:35:15.160Z,10.65
2023-04-06T16:40:20.281Z,9.52
2023-04-06T16:45:23.822Z,10.88
2023-04-06T16:50:27.325Z,11.27
2023-04-06T16:55:32.086Z,12.90
2023-04-06T17:00:38.031Z,12.23
2023-04-06T17:05:41.514Z,11.70
2023-04-06T17:10:59.045Z,10.93
2023-04-06T17:16:06.974Z,12.27
2023-04-06T17:21:14.511Z,14.13
2023-04-06T17:26:19.767Z,10.10
2023-04-06T17:31:23.508Z,11.88
2023-04-06T17:36:28.617Z,12.63
2023-04-06T17:41:34.837Z,11.90
2023-04-06T17:46:38.531Z,14.80
2023-04-06T17:51:42.286Z,19.50
2023-04-06T17:56:49.109Z,15.13
2023-04-06T18:01:52.615Z,18.35
2023-04-06T18:06:56.498Z,14.35
2023-04-06T18:12:01.440Z,13.18
2023-04-06T18:17:04.965Z,18.05
2023-04-06T18:22:08.378Z,20.85
2023-04-06T18:27:14.432Z,16.65
2023-04-06T18:32:17.865Z,17.08
2023-04-06T18:37:21.626Z,16.45
2023-04-06T18:42:26.419Z,14.20
2023-04-06T18:47:29.839Z,15.40
2023-04-06T18:52:33.333Z,17.95
2023-04-06T18:57:38.160Z,13.65
2023-04-06T19:02:41.779Z,13.38
2023-04-06T19:07:49.432Z,14.23
2023-04-06T19:12:54.157Z,14.95
2023-04-06T19:17:57.736Z,13.35
2023-04-06T19:23:01.708Z,15.98
2023-04-06T19:28:08.952Z,20.48
2023-04-06T19:33:12.995Z,21.05
2023-04-06T19:38:16.357Z,18.08
2023-04-06T19:43:21.495Z,17.83
2023-04-06T19:48:25.175Z,18.15
2023-04-06T19:53:29.035Z,15.75
2023-04-06T19:58:33.794Z,23.10
2023-04-06T20:03:37.435Z,22.95
2023-04-06T20:08:41.355Z,15.75
2023-04-06T20:13:46.381Z,16.98
2023-04-06T20:18:49.819Z,15.73
2023-04-06T20:23:53.265Z,16.23
2023-04-06T20:28:58.878Z,19.55
2023-04-06T20:34:02.654Z,15.05
2023-04-06T20:39:06.066Z,19.05
2023-04-06T20:44:10.984Z,19.35
2023-04-06T20:49:14.504Z,17.02
2023-04-06T20:54:18.126Z,16.63
2023-04-06T20:59:23.040Z,21.00
2023-04-06T21:04:26.623Z,19.98
2023-04-06T21:09:30.434Z,14.90
2023-04-06T21:14:35.410Z,22.13
2023-04-06T21:19:38.818Z,18.08
2023-04-06T21:24:42.754Z,19.83
2023-04-06T21:29:47.793Z,18.25
2023-04-06T21:34:51.677Z,18.27
2023-04-06T21:39:57.108Z,19.23
2023-04-06T21:45:01.895Z,19.08
2023-04-06T21:50:05.848Z,19.13
2023-04-06T21:55:09.822Z,21.65
2023-04-06T22:00:16.495Z,13.88
2023-04-06T22:05:20.019Z,17.25
2023-04-06T22:10:23.707Z,20.92
2023-04-06T22:15:28.694Z,17.27
2023-04-06T22:20:32.212Z,18.50
2023-04-06T22:25:35.661Z,19.55
2023-04-06T22:30:40.512Z,18.35
2023-04-06T22:35:43.967Z,18.98
2023-04-06T22:40:47.509Z,20.08
2023-04-06T22:45:52.246Z,23.88
2023-04-06T22:50:56.817Z,25.45
2023-04-06T22:56:00.683Z,21.35
2023-04-06T23:01:05.653Z,19.50
2023-04-06T23:06:09.143Z,21.50
2023-04-06T23:11:12.611Z,19.75
2023-04-06T23:16:17.448Z,20.83
2023-04-06T23:21:21.206Z,23.55
2023-04-06T23:26:24.587Z,22.30
2023-04-06T23:31:29.853Z,19.67
2023-04-06T23:36:33.224Z,23.77
2023-04-06T23:41:36.933Z,18.98
2023-04-06T23:46:41.756Z,16.05
2023-04-06T23:51:45.379Z,18.05
2023-04-06T23:56:50.584Z,17.73
